createdAt,value
2024-05-09T00:00:15.527Z,901.00
2024-05-09T00:01:10.622Z,902.00
2024-05-09T00:02:09.646Z,901.00
2024-05-09T00:03:11.315Z,901.00
2024-05-09T00:04:09.659Z,900.00
2024-05-09T00:05:09.732Z,900.00
2024-05-09T00:06:09.979Z,903.00
2024-05-09T00:07:09.794Z,903.00
2024-05-09T00:08:10.308Z,902.00
2024-05-09T00:09:09.848Z,903.00
2024-05-09T00:10:17.850Z,904.00
2024-05-09T00:11:11.045Z,903.00
2024-05-09T00:12:10.088Z,904.00
2024-05-09T00:13:10.591Z,902.00
2024-05-09T00:14:10.040Z,899.00
2024-05-09T00:15:09.891Z,899.00
2024-05-09T00:16:09.894Z,899.00
2024-05-09T00:17:09.977Z,899.00
2024-05-09T00:18:10.088Z,894.00
2024-05-09T00:19:10.124Z,891.00
2024-05-09T00:20:17.494Z,893.00
2024-05-09T00:21:11.087Z,894.00
2024-05-09T00:22:09.936Z,896.00
2024-05-09T00:23:09.979Z,891.00
2024-05-09T00:24:09.966Z,892.00
2024-05-09T00:25:09.921Z,892.00
2024-05-09T00:26:09.984Z,891.00
2024-05-09T00:27:13.160Z,893.00
2024-05-09T00:28:09.938Z,891.00
2024-05-09T00:29:09.990Z,889.00
2024-05-09T00:30:14.559Z,891.00
2024-05-09T00:31:10.970Z,891.00
2024-05-09T00:32:10.075Z,889.00
2024-05-09T00:33:11.062Z,890.00
2024-05-09T00:34:10.258Z,889.00
2024-05-09T00:35:10.018Z,888.00
2024-05-09T00:36:09.971Z,889.00
2024-05-09T00:37:09.974Z,892.00
2024-05-09T00:38:09.984Z,895.00
2024-05-09T00:39:09.957Z,896.00
2024-05-09T00:40:15.283Z,893.00
2024-05-09T00:41:11.278Z,890.00
2024-05-09T00:42:09.968Z,891.00
2024-05-09T00:43:10.193Z,892.00
2024-05-09T00:44:10.020Z,892.00
2024-05-09T00:45:11.012Z,892.00
2024-05-09T00:46:09.998Z,888.00
2024-05-09T00:47:10.145Z,890.00
2024-05-09T00:48:11.066Z,888.00
2024-05-09T00:49:10.160Z,889.00
2024-05-09T00:50:15.763Z,887.00
2024-05-09T00:51:11.278Z,888.00
2024-05-09T00:52:09.986Z,887.00
2024-05-09T00:53:10.144Z,888.00
2024-05-09T00:54:10.001Z,890.00
2024-05-09T00:55:10.003Z,889.00
2024-05-09T00:56:10.085Z,890.00
2024-05-09T00:57:15.420Z,890.00
2024-05-09T00:58:10.058Z,889.00
2024-05-09T00:59:10.140Z,889.00
2024-05-09T01:00:22.085Z,887.00
2024-05-09T01:01:11.213Z,889.00
2024-05-09T01:02:10.245Z,892.00
2024-05-09T01:03:12.076Z,892.00
2024-05-09T01:04:10.254Z,893.00
2024-05-09T01:05:10.275Z,895.00
2024-05-09T01:06:10.138Z,896.00
2024-05-09T01:07:10.141Z,898.00
2024-05-09T01:08:10.680Z,895.00
2024-05-09T01:09:10.152Z,892.00
2024-05-09T01:10:14.342Z,888.00
2024-05-09T01:11:11.364Z,887.00
2024-05-09T01:12:10.383Z,887.00
2024-05-09T01:13:10.145Z,885.00
2024-05-09T01:14:10.212Z,882.00
2024-05-09T01:15:10.154Z,886.00
2024-05-09T01:16:13.130Z,886.00
2024-05-09T01:17:10.189Z,884.00
2024-05-09T01:18:10.865Z,883.00
2024-05-09T01:19:10.291Z,882.00
2024-05-09T01:20:12.985Z,883.00
2024-05-09T01:21:11.387Z,884.00
2024-05-09T01:22:10.196Z,884.00
2024-05-09T01:23:10.475Z,884.00
2024-05-09T01:24:10.213Z,883.00
2024-05-09T01:25:10.169Z,883.00
2024-05-09T01:26:10.217Z,884.00
2024-05-09T01:27:10.191Z,887.00
2024-05-09T01:28:10.181Z,888.00
2024-05-09T01:29:10.262Z,889.00
2024-05-09T01:30:16.992Z,887.00
2024-05-09T01:31:11.193Z,886.00
2024-05-09T01:32:10.311Z,884.00
2024-05-09T01:33:11.880Z,882.00
2024-05-09T01:34:10.342Z,882.00
2024-05-09T01:35:10.403Z,886.00
2024-05-09T01:36:10.400Z,886.00
2024-05-09T01:37:10.450Z,886.00
2024-05-09T01:38:10.522Z,882.00
2024-05-09T01:39:10.568Z,883.00
2024-05-09T01:40:15.007Z,881.00
2024-05-09T01:41:11.642Z,882.00
2024-05-09T01:42:10.645Z,883.00
2024-05-09T01:43:11.724Z,881.00
2024-05-09T01:44:10.680Z,881.00
2024-05-09T01:45:10.632Z,882.00
2024-05-09T01:46:10.618Z,883.00
2024-05-09T01:47:10.766Z,879.00
2024-05-09T01:48:11.349Z,878.00
2024-05-09T01:49:10.691Z,881.00
2024-05-09T01:50:11.135Z,880.00
2024-05-09T01:51:10.820Z,879.00
2024-05-09T01:52:10.645Z,880.00
2024-05-09T01:53:10.897Z,880.00
2024-05-09T01:54:10.724Z,882.00
2024-05-09T01:55:10.805Z,880.00
2024-05-09T01:56:10.844Z,879.00
2024-05-09T01:57:10.898Z,877.00
2024-05-09T01:58:11.003Z,880.00
2024-05-09T01:59:11.077Z,879.00
2024-05-09T02:00:15.601Z,880.00
2024-05-09T02:01:11.287Z,880.00
2024-05-09T02:02:11.289Z,879.00
2024-05-09T02:03:14.087Z,878.00
2024-05-09T02:04:12.210Z,878.00
2024-05-09T02:05:11.342Z,879.00
2024-05-09T02:06:11.549Z,876.00
2024-05-09T02:07:11.205Z,879.00
2024-05-09T02:08:11.448Z,879.00
2024-05-09T02:09:11.221Z,879.00
2024-05-09T02:10:16.717Z,881.00
2024-05-09T02:11:12.258Z,882.00
2024-05-09T02:12:11.425Z,881.00
2024-05-09T02:13:11.215Z,881.00
2024-05-09T02:14:11.193Z,882.00
2024-05-09T02:15:11.126Z,880.00
2024-05-09T02:16:11.242Z,881.00
2024-05-09T02:17:11.259Z,884.00
2024-05-09T02:18:11.559Z,885.00
2024-05-09T02:19:11.381Z,884.00
2024-05-09T02:20:18.772Z,884.00
2024-05-09T02:21:12.211Z,885.00
2024-05-09T02:22:11.237Z,884.00
2024-05-09T02:23:11.397Z,884.00
2024-05-09T02:24:11.168Z,884.00
2024-05-09T02:25:11.207Z,883.00
2024-05-09T02:26:11.295Z,883.00
2024-05-09T02:27:11.265Z,884.00
2024-05-09T02:28:11.257Z,884.00
2024-05-09T02:29:11.336Z,886.00
2024-05-09T02:30:18.774Z,886.00
2024-05-09T02:31:12.176Z,887.00
2024-05-09T02:32:11.227Z,885.00
2024-05-09T02:33:13.317Z,886.00
2024-05-09T02:34:11.254Z,887.00
2024-05-09T02:35:11.220Z,884.00
2024-05-09T02:36:11.186Z,884.00
2024-05-09T02:37:11.173Z,885.00
2024-05-09T02:38:11.323Z,883.00
2024-05-09T02:39:11.171Z,880.00
2024-05-09T02:40:14.753Z,876.00
2024-05-09T02:41:12.284Z,876.00
2024-05-09T02:42:12.142Z,876.00
2024-05-09T02:43:12.029Z,876.00
2024-05-09T02:44:11.264Z,878.00
2024-05-09T02:45:11.212Z,881.00
2024-05-09T02:46:11.189Z,881.00
2024-05-09T02:47:14.398Z,880.00
2024-05-09T02:48:11.859Z,879.00
2024-05-09T02:49:11.395Z,878.00
2024-05-09T02:51:11.628Z,875.00
2024-05-09T02:52:11.249Z,874.00
2024-05-09T02:53:11.295Z,876.00
2024-05-09T02:54:11.208Z,877.00
2024-05-09T02:55:11.213Z,877.00
2024-05-09T02:56:11.276Z,877.00
2024-05-09T02:57:11.299Z,878.00
2024-05-09T02:58:11.401Z,880.00
2024-05-09T02:59:11.463Z,881.00
2024-05-09T03:00:18.502Z,883.00
2024-05-09T03:01:13.052Z,883.00
2024-05-09T03:02:11.565Z,881.00
2024-05-09T03:03:13.903Z,881.00
2024-05-09T03:04:11.584Z,882.00
2024-05-09T03:05:11.666Z,884.00
2024-05-09T03:06:11.568Z,884.00
2024-05-09T03:07:11.501Z,883.00
2024-05-09T03:08:11.564Z,881.00
2024-05-09T03:09:11.497Z,878.00
2024-05-09T03:10:18.374Z,875.00
2024-05-09T03:11:12.616Z,874.00
2024-05-09T03:12:11.641Z,874.00
2024-05-09T03:13:11.815Z,873.00
2024-05-09T03:14:11.537Z,872.00
2024-05-09T03:15:18.791Z,865.00
2024-05-09T03:16:18.777Z,868.00
2024-05-09T03:17:18.838Z,871.00
2024-05-09T03:18:18.820Z,868.00
2024-05-09T03:19:18.955Z,868.00
2024-05-09T03:20:23.720Z,869.00
2024-05-09T03:21:19.817Z,869.00
2024-05-09T03:22:18.799Z,868.00
2024-05-09T03:23:18.810Z,867.00
2024-05-09T03:24:18.801Z,864.00
2024-05-09T03:25:18.827Z,863.00
2024-05-09T03:26:18.899Z,862.00
2024-05-09T03:27:18.807Z,862.00
2024-05-09T03:28:18.780Z,865.00
2024-05-09T03:29:18.856Z,867.00
2024-05-09T03:30:26.121Z,866.00
2024-05-09T03:31:19.833Z,866.00
2024-05-09T03:32:18.912Z,868.00
2024-05-09T03:33:20.269Z,870.00
2024-05-09T03:34:18.889Z,873.00
2024-05-09T03:35:18.928Z,872.00
2024-05-09T03:36:18.793Z,869.00
2024-05-09T03:37:18.845Z,866.00
2024-05-09T03:38:18.862Z,864.00
2024-05-09T03:39:18.808Z,863.00
2024-05-09T03:40:23.611Z,862.00
2024-05-09T03:41:19.854Z,859.00
2024-05-09T03:42:18.805Z,859.00
2024-05-09T03:43:18.888Z,861.00
2024-05-09T03:44:18.867Z,860.00
2024-05-09T03:45:19.404Z,858.00
2024-05-09T03:46:18.834Z,858.00
2024-05-09T03:47:18.864Z,856.00
2024-05-09T03:48:19.123Z,859.00
2024-05-09T03:49:18.927Z,861.00
2024-05-09T03:50:26.069Z,863.00
2024-05-09T03:51:19.903Z,863.00
2024-05-09T03:52:18.835Z,863.00
2024-05-09T03:53:18.871Z,862.00
2024-05-09T03:54:18.884Z,861.00
2024-05-09T03:55:18.867Z,861.00
2024-05-09T03:56:18.968Z,865.00
2024-05-09T03:57:18.871Z,865.00
2024-05-09T03:58:18.840Z,864.00
2024-05-09T03:59:18.942Z,865.00
2024-05-09T04:00:26.539Z,867.00
2024-05-09T04:01:19.924Z,865.00
2024-05-09T04:02:18.947Z,865.00
2024-05-09T04:03:19.231Z,863.00
2024-05-09T04:04:18.869Z,866.00
2024-05-09T04:05:19.495Z,865.00
2024-05-09T04:06:18.877Z,865.00
2024-05-09T04:07:18.903Z,863.00
2024-05-09T04:08:18.981Z,862.00
2024-05-09T04:09:18.869Z,862.00
2024-05-09T04:10:27.402Z,861.00
2024-05-09T04:11:20.032Z,858.00
2024-05-09T04:12:18.948Z,855.00
2024-05-09T04:13:18.884Z,855.00
2024-05-09T04:14:18.992Z,852.00
2024-05-09T04:15:18.895Z,854.00
2024-05-09T04:16:18.896Z,856.00
2024-05-09T04:17:18.937Z,861.00
2024-05-09T04:18:19.022Z,861.00
2024-05-09T04:19:19.030Z,862.00
2024-05-09T04:20:29.060Z,861.00
2024-05-09T04:21:19.890Z,860.00
2024-05-09T04:22:18.906Z,859.00
2024-05-09T04:23:18.967Z,861.00
2024-05-09T04:24:18.892Z,862.00
2024-05-09T04:25:18.936Z,862.00
2024-05-09T04:26:18.919Z,862.00
2024-05-09T04:27:18.935Z,860.00
2024-05-09T04:28:18.922Z,860.00
2024-05-09T04:29:18.941Z,861.00
2024-05-09T04:30:26.262Z,862.00
2024-05-09T04:31:19.928Z,862.00
2024-05-09T04:32:18.992Z,860.00
2024-05-09T04:33:19.187Z,861.00
2024-05-09T04:34:18.959Z,864.00
2024-05-09T04:35:18.983Z,866.00
2024-05-09T04:36:18.931Z,865.00
2024-05-09T04:37:18.939Z,864.00
2024-05-09T04:38:19.101Z,863.00
2024-05-09T04:39:18.930Z,863.00
2024-05-09T04:40:27.800Z,863.00
2024-05-09T04:41:20.089Z,862.00
2024-05-09T04:42:18.982Z,861.00
2024-05-09T04:43:19.149Z,859.00
2024-05-09T04:44:19.019Z,856.00
2024-05-09T04:45:18.961Z,853.00
2024-05-09T04:46:18.957Z,855.00
2024-05-09T04:47:19.065Z,854.00
2024-05-09T04:48:19.129Z,852.00
2024-05-09T04:49:19.001Z,853.00
2024-05-09T04:50:29.024Z,853.00
2024-05-09T04:51:19.969Z,853.00
2024-05-09T04:52:18.954Z,853.00
2024-05-09T04:53:19.082Z,855.00
2024-05-09T04:55:18.979Z,852.00
2024-05-09T04:56:18.987Z,852.00
2024-05-09T04:57:18.982Z,854.00
2024-05-09T04:58:18.983Z,854.00
2024-05-09T04:59:19.141Z,854.00
2024-05-09T05:00:28.567Z,856.00
2024-05-09T05:01:20.033Z,859.00
2024-05-09T05:02:22.558Z,860.00
2024-05-09T05:03:19.296Z,860.00
2024-05-09T05:04:19.115Z,859.00
2024-05-09T05:05:19.087Z,860.00
2024-05-09T05:06:19.012Z,859.00
2024-05-09T05:07:19.008Z,857.00
2024-05-09T05:08:19.648Z,856.00
2024-05-09T05:09:19.015Z,855.00
2024-05-09T05:10:25.428Z,856.00
2024-05-09T05:11:20.122Z,855.00
2024-05-09T05:12:19.091Z,855.00
2024-05-09T05:13:20.371Z,854.00
2024-05-09T05:14:19.199Z,854.00
2024-05-09T05:15:19.199Z,855.00
2024-05-09T05:16:19.246Z,855.00
2024-05-09T05:17:19.381Z,855.00
2024-05-09T05:18:19.689Z,854.00
2024-05-09T05:19:19.457Z,854.00
2024-05-09T05:20:27.395Z,855.00
2024-05-09T05:21:20.547Z,853.00
2024-05-09T05:22:27.825Z,854.00
2024-05-09T05:23:19.592Z,854.00
2024-05-09T05:24:19.486Z,853.00
2024-05-09T05:25:19.574Z,853.00
2024-05-09T05:26:19.621Z,856.00
2024-05-09T05:27:19.651Z,855.00
2024-05-09T05:28:19.705Z,856.00
2024-05-09T05:29:20.867Z,856.00
2024-05-09T05:30:25.090Z,859.00
2024-05-09T05:31:20.834Z,856.00
2024-05-09T05:32:19.989Z,855.00
2024-05-09T05:33:20.296Z,853.00
2024-05-09T05:34:19.794Z,852.00
2024-05-09T05:35:19.842Z,855.00
2024-05-09T05:36:19.780Z,855.00
2024-05-09T05:37:19.984Z,855.00
2024-05-09T05:38:21.920Z,855.00
2024-05-09T05:39:19.832Z,854.00
2024-05-09T05:40:28.167Z,854.00
2024-05-09T05:41:20.829Z,854.00
2024-05-09T05:42:19.794Z,851.00
2024-05-09T05:43:19.804Z,853.00
2024-05-09T05:44:19.846Z,855.00
2024-05-09T05:45:19.813Z,852.00
2024-05-09T05:46:19.822Z,850.00
2024-05-09T05:47:19.915Z,848.00
2024-05-09T05:48:20.010Z,847.00
2024-05-09T05:49:20.065Z,848.00
2024-05-09T05:50:27.409Z,848.00
2024-05-09T05:51:20.866Z,850.00
2024-05-09T05:52:19.821Z,850.00
2024-05-09T05:53:19.858Z,851.00
2024-05-09T05:54:19.835Z,851.00
2024-05-09T05:55:19.848Z,850.00
2024-05-09T05:56:19.967Z,850.00
2024-05-09T05:57:19.878Z,851.00
2024-05-09T05:58:19.861Z,851.00
2024-05-09T05:59:19.877Z,852.00
2024-05-09T06:00:29.240Z,852.00
2024-05-09T06:01:20.901Z,853.00
2024-05-09T06:02:19.964Z,853.00
2024-05-09T06:03:19.856Z,853.00
2024-05-09T06:04:19.866Z,850.00
2024-05-09T06:05:19.892Z,851.00
2024-05-09T06:06:19.858Z,851.00
2024-05-09T06:07:19.971Z,852.00
2024-05-09T06:08:19.926Z,851.00
2024-05-09T06:09:19.841Z,849.00
2024-05-09T06:10:25.454Z,850.00
2024-05-09T06:11:21.009Z,850.00
2024-05-09T06:12:19.991Z,851.00
2024-05-09T06:13:19.863Z,852.00
2024-05-09T06:14:19.899Z,851.00
2024-05-09T06:15:19.870Z,848.00
2024-05-09T06:16:19.858Z,848.00
2024-05-09T06:17:20.044Z,849.00
2024-05-09T06:18:20.206Z,849.00
2024-05-09T06:19:20.043Z,849.00
2024-05-09T06:20:24.083Z,849.00
2024-05-09T06:21:20.988Z,846.00
2024-05-09T06:22:19.861Z,846.00
2024-05-09T06:23:19.949Z,848.00
2024-05-09T06:24:19.873Z,848.00
2024-05-09T06:25:19.880Z,846.00
2024-05-09T06:26:19.928Z,844.00
2024-05-09T06:27:19.890Z,843.00
2024-05-09T06:28:19.901Z,842.00
2024-05-09T06:29:20.009Z,841.00
2024-05-09T06:30:29.897Z,841.00
2024-05-09T06:31:20.903Z,841.00
2024-05-09T06:32:20.071Z,842.00
2024-05-09T06:33:20.060Z,845.00
2024-05-09T06:34:19.966Z,848.00
2024-05-09T06:35:19.956Z,851.00
2024-05-09T06:36:19.887Z,849.00
2024-05-09T06:37:19.890Z,852.00
2024-05-09T06:38:20.089Z,852.00
2024-05-09T06:39:19.901Z,851.00
2024-05-09T06:40:25.692Z,850.00
2024-05-09T06:41:20.976Z,853.00
2024-05-09T06:42:19.896Z,854.00
2024-05-09T06:43:20.179Z,853.00
2024-05-09T06:44:19.966Z,852.00
2024-05-09T06:45:19.930Z,853.00
2024-05-09T06:46:19.923Z,854.00
2024-05-09T06:47:19.981Z,853.00
2024-05-09T06:48:20.498Z,851.00
2024-05-09T06:49:20.183Z,851.00
2024-05-09T06:50:24.145Z,851.00
2024-05-09T06:51:21.003Z,853.00
2024-05-09T06:52:19.925Z,855.00
2024-05-09T06:53:19.996Z,852.00
2024-05-09T06:54:19.940Z,854.00
2024-05-09T06:55:19.947Z,856.00
2024-05-09T06:56:20.024Z,857.00
2024-05-09T06:57:19.927Z,855.00
2024-05-09T06:58:19.957Z,852.00
2024-05-09T06:59:20.000Z,853.00
2024-05-09T07:00:27.703Z,850.00
2024-05-09T07:01:21.026Z,850.00
2024-05-09T07:02:20.077Z,846.00
2024-05-09T07:03:20.177Z,849.00
2024-05-09T07:04:20.159Z,852.00
2024-05-09T07:05:20.015Z,850.00
2024-05-09T07:06:19.957Z,850.00
2024-05-09T07:07:19.965Z,850.00
2024-05-09T07:08:20.066Z,850.00
2024-05-09T07:09:19.969Z,849.00
2024-05-09T07:10:28.448Z,847.00
2024-05-09T07:11:21.081Z,845.00
2024-05-09T07:12:20.059Z,844.00
2024-05-09T07:13:20.012Z,841.00
2024-05-09T07:14:20.008Z,840.00
2024-05-09T07:15:19.981Z,843.00
2024-05-09T07:16:19.987Z,841.00
2024-05-09T07:17:20.095Z,842.00
2024-05-09T07:18:20.738Z,839.00
2024-05-09T07:19:20.193Z,838.00
2024-05-09T07:20:27.649Z,841.00
2024-05-09T07:21:21.038Z,841.00
2024-05-09T07:22:19.996Z,842.00
2024-05-09T07:23:20.132Z,841.00
2024-05-09T07:24:20.042Z,839.00
2024-05-09T07:25:20.009Z,836.00
2024-05-09T07:26:20.062Z,835.00
2024-05-09T07:27:20.000Z,836.00
2024-05-09T07:28:20.066Z,839.00
2024-05-09T07:29:20.054Z,841.00
2024-05-09T07:30:27.100Z,839.00
2024-05-09T07:31:21.032Z,842.00
2024-05-09T07:32:20.090Z,845.00
2024-05-09T07:33:21.541Z,842.00
2024-05-09T07:34:20.128Z,843.00
2024-05-09T07:35:20.053Z,842.00
2024-05-09T07:36:20.064Z,845.00
2024-05-09T07:37:20.030Z,843.00
2024-05-09T07:38:20.219Z,844.00
2024-05-09T07:39:20.045Z,845.00
2024-05-09T07:40:28.213Z,843.00
2024-05-09T07:41:21.156Z,843.00
2024-05-09T07:42:20.062Z,844.00
2024-05-09T07:43:20.037Z,844.00
2024-05-09T07:44:20.164Z,844.00
2024-05-09T07:45:40.111Z,845.00
2024-05-09T07:48:57.332Z,823.00
2024-05-09T07:50:33.273Z,829.00
2024-05-09T07:53:08.588Z,832.00
2024-05-09T07:53:33.054Z,832.00
2024-05-09T07:53:40.674Z,834.00
2024-05-09T07:54:32.440Z,833.00
2024-05-09T07:55:31.488Z,831.00
2024-05-09T07:57:31.236Z,831.00
2024-05-09T07:58:31.233Z,829.00
2024-05-09T07:59:33.383Z,828.00
2024-05-09T08:00:32.162Z,832.00
2024-05-09T08:01:31.275Z,832.00
2024-05-09T08:02:31.385Z,832.00
2024-05-09T08:03:31.453Z,832.00
2024-05-09T08:04:31.400Z,834.00
2024-05-09T08:05:31.512Z,836.00
2024-05-09T08:06:31.325Z,834.00
2024-05-09T08:07:31.229Z,834.00
2024-05-09T08:08:31.249Z,835.00
2024-05-09T08:09:31.267Z,834.00
2024-05-09T08:10:31.312Z,834.00
2024-05-09T08:11:31.338Z,836.00
2024-05-09T08:12:31.279Z,838.00
2024-05-09T08:13:31.270Z,838.00
2024-05-09T08:14:31.277Z,840.00
2024-05-09T08:15:31.277Z,838.00
2024-05-09T08:16:31.375Z,839.00
2024-05-09T08:17:31.362Z,840.00
2024-05-09T08:18:31.754Z,837.00
2024-05-09T08:19:31.294Z,838.00
2024-05-09T08:20:35.103Z,836.00
2024-05-09T08:21:31.316Z,835.00
2024-05-09T08:22:31.281Z,833.00
2024-05-09T08:23:31.272Z,832.00
2024-05-09T08:24:31.288Z,832.00
2024-05-09T08:25:31.249Z,835.00
2024-05-09T08:26:31.254Z,836.00
2024-05-09T08:27:31.311Z,833.00
2024-05-09T08:28:31.259Z,834.00
2024-05-09T08:29:31.272Z,836.00
2024-05-09T08:30:36.543Z,836.00
2024-05-09T08:31:32.365Z,837.00
2024-05-09T08:32:31.407Z,834.00
2024-05-09T08:33:31.551Z,833.00
2024-05-09T08:34:31.413Z,833.00
2024-05-09T08:35:31.316Z,833.00
2024-05-09T08:36:31.341Z,832.00
2024-05-09T08:37:36.650Z,831.00
2024-05-09T08:38:32.317Z,834.00
2024-05-09T08:39:31.342Z,834.00
2024-05-09T08:40:35.277Z,836.00
2024-05-09T08:41:32.354Z,841.00
2024-05-09T08:42:31.353Z,843.00
2024-05-09T08:43:31.406Z,844.00
2024-05-09T08:44:31.330Z,845.00
2024-05-09T08:45:31.469Z,842.00
2024-05-09T08:46:31.348Z,844.00
2024-05-09T08:47:31.380Z,843.00
2024-05-09T08:48:31.455Z,841.00
2024-05-09T08:49:31.378Z,840.00
2024-05-09T08:50:37.936Z,841.00
2024-05-09T08:51:32.363Z,843.00
2024-05-09T08:52:31.352Z,840.00
2024-05-09T08:53:31.336Z,841.00
2024-05-09T08:54:31.366Z,837.00
2024-05-09T08:55:31.316Z,836.00
2024-05-09T08:56:31.315Z,835.00
2024-05-09T08:57:31.336Z,832.00
2024-05-09T08:58:31.328Z,831.00
2024-05-09T08:59:31.335Z,831.00
2024-05-09T09:00:36.851Z,830.00
2024-05-09T09:01:32.471Z,830.00
2024-05-09T09:02:31.554Z,827.00
2024-05-09T09:03:31.689Z,826.00
2024-05-09T09:04:31.436Z,828.00
2024-05-09T09:05:31.996Z,830.00
2024-05-09T09:06:31.442Z,833.00
2024-05-09T09:07:31.367Z,837.00
2024-05-09T09:08:31.340Z,840.00
2024-05-09T09:09:31.475Z,842.00
2024-05-09T09:10:32.812Z,844.00
2024-05-09T09:11:31.474Z,844.00
2024-05-09T09:12:31.418Z,844.00
2024-05-09T09:13:31.360Z,844.00
2024-05-09T09:14:31.375Z,843.00
2024-05-09T09:15:31.457Z,843.00
2024-05-09T09:16:31.431Z,840.00
2024-05-09T09:17:31.409Z,836.00
2024-05-09T09:18:31.597Z,836.00
2024-05-09T09:19:31.507Z,837.00
2024-05-09T09:20:36.321Z,837.00
2024-05-09T09:21:32.440Z,834.00
2024-05-09T09:22:31.386Z,836.00
2024-05-09T09:23:31.385Z,836.00
2024-05-09T09:24:31.449Z,839.00
2024-05-09T09:25:31.515Z,842.00
2024-05-09T09:26:31.411Z,842.00
2024-05-09T09:27:31.404Z,841.00
2024-05-09T09:28:31.372Z,840.00
2024-05-09T09:29:31.377Z,839.00
2024-05-09T09:30:36.727Z,839.00
2024-05-09T09:31:32.429Z,842.00
2024-05-09T09:32:31.501Z,842.00
2024-05-09T09:33:31.694Z,842.00
2024-05-09T09:34:31.924Z,844.00
2024-05-09T09:35:31.400Z,841.00
2024-05-09T09:36:31.469Z,844.00
2024-05-09T09:37:31.392Z,845.00
2024-05-09T09:38:31.393Z,847.00
2024-05-09T09:39:31.457Z,847.00
2024-05-09T09:40:33.786Z,849.00
2024-05-09T09:41:31.391Z,851.00
2024-05-09T09:42:31.468Z,855.00
2024-05-09T09:43:31.426Z,857.00
2024-05-09T09:44:31.440Z,859.00
2024-05-09T09:45:31.474Z,856.00
2024-05-09T09:46:31.448Z,854.00
2024-05-09T09:47:31.487Z,855.00
2024-05-09T09:48:31.552Z,853.00
2024-05-09T09:49:31.455Z,854.00
2024-05-09T09:50:34.607Z,855.00
2024-05-09T09:51:31.492Z,854.00
2024-05-09T09:52:31.462Z,853.00
2024-05-09T09:53:31.443Z,851.00
2024-05-09T09:54:31.479Z,853.00
2024-05-09T09:55:31.461Z,852.00
2024-05-09T09:56:31.427Z,855.00
2024-05-09T09:57:31.452Z,856.00
2024-05-09T09:58:31.487Z,855.00
2024-05-09T09:59:31.441Z,855.00
2024-05-09T10:00:33.411Z,853.00
2024-05-09T10:01:31.720Z,851.00
2024-05-09T10:02:31.824Z,845.00
2024-05-09T10:03:31.814Z,843.00
2024-05-09T10:04:31.778Z,844.00
2024-05-09T10:05:31.774Z,845.00
2024-05-09T10:06:31.739Z,847.00
2024-05-09T10:07:31.660Z,847.00
2024-05-09T10:08:31.705Z,845.00
2024-05-09T10:09:31.779Z,845.00
2024-05-09T10:10:33.068Z,844.00
2024-05-09T10:11:34.793Z,848.00
2024-05-09T10:12:31.850Z,845.00
2024-05-09T10:13:31.781Z,847.00
2024-05-09T10:14:31.736Z,845.00
2024-05-09T10:15:31.804Z,843.00
2024-05-09T10:16:31.788Z,845.00
2024-05-09T10:17:31.852Z,844.00
2024-05-09T10:18:34.113Z,842.00
2024-05-09T10:19:31.857Z,840.00
2024-05-09T10:20:32.943Z,838.00
2024-05-09T10:21:31.803Z,837.00
2024-05-09T10:22:31.752Z,836.00
2024-05-09T10:23:31.799Z,834.00
2024-05-09T10:24:31.778Z,835.00
2024-05-09T10:25:31.851Z,831.00
2024-05-09T10:26:31.770Z,829.00
2024-05-09T10:27:31.768Z,828.00
2024-05-09T10:28:31.784Z,830.00
2024-05-09T10:29:31.795Z,830.00
2024-05-09T10:30:35.961Z,833.00
2024-05-09T10:31:32.890Z,832.00
2024-05-09T10:32:31.833Z,832.00
2024-05-09T10:33:31.937Z,835.00
2024-05-09T10:34:31.919Z,834.00
2024-05-09T10:35:31.776Z,835.00
2024-05-09T10:36:31.874Z,837.00
2024-05-09T10:37:31.873Z,837.00
2024-05-09T10:38:31.765Z,834.00
2024-05-09T10:39:31.863Z,833.00
2024-05-09T10:40:32.251Z,833.00
2024-05-09T10:41:31.824Z,832.00
2024-05-09T10:42:31.854Z,829.00
2024-05-09T10:43:31.877Z,828.00
2024-05-09T10:44:31.898Z,828.00
2024-05-09T10:45:32.094Z,827.00
2024-05-09T10:46:32.020Z,825.00
2024-05-09T10:47:32.142Z,825.00
2024-05-09T10:48:32.162Z,826.00
2024-05-09T10:49:32.145Z,823.00
2024-05-09T10:50:34.383Z,821.00
2024-05-09T10:51:32.401Z,822.00
2024-05-09T10:52:32.365Z,823.00
2024-05-09T10:53:32.448Z,823.00
2024-05-09T10:54:32.611Z,828.00
2024-05-09T10:55:32.537Z,833.00
2024-05-09T10:56:32.546Z,835.00
2024-05-09T10:57:32.591Z,837.00
2024-05-09T10:58:42.694Z,837.00
2024-05-09T10:59:32.611Z,836.00
2024-05-09T11:00:35.972Z,835.00
2024-05-09T11:01:32.724Z,838.00
2024-05-09T11:02:32.946Z,840.00
2024-05-09T11:03:32.707Z,839.00
2024-05-09T11:04:32.666Z,839.00
2024-05-09T11:05:32.817Z,838.00
2024-05-09T11:06:32.676Z,836.00
2024-05-09T11:07:32.642Z,835.00
2024-05-09T11:08:32.863Z,831.00
2024-05-09T11:09:32.669Z,831.00
2024-05-09T11:10:34.385Z,829.00
2024-05-09T11:11:32.657Z,829.00
2024-05-09T11:12:32.680Z,829.00
2024-05-09T11:13:32.608Z,830.00
2024-05-09T11:14:32.601Z,831.00
2024-05-09T11:15:32.631Z,830.00
2024-05-09T11:16:32.688Z,827.00
2024-05-09T11:17:32.835Z,825.00
2024-05-09T11:18:36.526Z,826.00
2024-05-09T11:19:33.836Z,827.00
2024-05-09T11:20:35.041Z,826.00
2024-05-09T11:21:32.804Z,827.00
2024-05-09T11:22:32.764Z,826.00
2024-05-09T11:23:32.764Z,829.00
2024-05-09T11:24:32.853Z,833.00
2024-05-09T11:25:32.740Z,830.00
2024-05-09T11:26:32.772Z,828.00
2024-05-09T11:27:32.828Z,828.00
2024-05-09T11:28:32.776Z,829.00
2024-05-09T11:29:32.763Z,829.00
2024-05-09T11:30:32.861Z,828.00
2024-05-09T11:31:33.062Z,826.00
2024-05-09T11:32:33.099Z,829.00
2024-05-09T11:33:32.864Z,829.00
2024-05-09T11:34:32.979Z,829.00
2024-05-09T11:35:32.755Z,830.00
2024-05-09T11:36:32.943Z,831.00
2024-05-09T11:37:35.404Z,830.00
2024-05-09T11:38:32.761Z,831.00
2024-05-09T11:39:32.873Z,832.00
2024-05-09T11:40:34.564Z,833.00
2024-05-09T11:41:32.762Z,834.00
2024-05-09T11:42:32.866Z,835.00
2024-05-09T11:43:32.881Z,834.00
2024-05-09T11:44:32.763Z,836.00
2024-05-09T11:45:32.845Z,836.00
2024-05-09T11:46:32.791Z,835.00
2024-05-09T11:47:32.880Z,840.00
2024-05-09T11:48:33.019Z,841.00
2024-05-09T11:49:33.129Z,843.00
2024-05-09T11:50:35.772Z,840.00
2024-05-09T11:51:33.065Z,838.00
2024-05-09T11:52:33.056Z,836.00
2024-05-09T11:53:33.038Z,838.00
2024-05-09T11:54:33.038Z,841.00
2024-05-09T11:55:32.991Z,842.00
2024-05-09T11:56:32.989Z,842.00
2024-05-09T11:57:33.114Z,842.00
2024-05-09T11:58:33.010Z,838.00
2024-05-09T11:59:33.013Z,839.00
2024-05-09T12:00:37.025Z,840.00
2024-05-09T12:01:33.171Z,839.00
2024-05-09T12:02:33.078Z,839.00
2024-05-09T12:03:33.131Z,837.00
2024-05-09T12:04:33.173Z,835.00
2024-05-09T12:05:34.127Z,836.00
2024-05-09T12:06:33.038Z,837.00
2024-05-09T12:07:33.024Z,837.00
2024-05-09T12:08:33.028Z,838.00
2024-05-09T12:09:33.065Z,838.00
2024-05-09T12:10:35.535Z,839.00
2024-05-09T12:11:33.082Z,839.00
2024-05-09T12:12:35.466Z,838.00
2024-05-09T12:13:33.090Z,839.00
2024-05-09T12:14:33.010Z,837.00
2024-05-09T12:15:33.158Z,837.00
2024-05-09T12:16:33.305Z,837.00
2024-05-09T12:17:33.114Z,836.00
2024-05-09T12:18:33.108Z,836.00
2024-05-09T12:19:40.456Z,840.00
2024-05-09T12:20:40.517Z,841.00
2024-05-09T12:21:40.419Z,843.00
2024-05-09T12:22:40.392Z,842.00
2024-05-09T12:23:40.416Z,842.00
2024-05-09T12:24:40.548Z,841.00
2024-05-09T12:25:40.591Z,841.00
2024-05-09T12:26:40.570Z,842.00
2024-05-09T12:27:40.730Z,837.00
2024-05-09T12:28:40.755Z,831.00
2024-05-09T12:29:40.690Z,827.00
2024-05-09T12:30:41.425Z,825.00
2024-05-09T12:31:40.872Z,827.00
2024-05-09T12:32:40.893Z,827.00
2024-05-09T12:33:40.883Z,829.00
2024-05-09T12:34:40.912Z,828.00